createdAt,value
2023-04-07T00:01:31.918Z,22.20
2023-04-07T00:03:59.524Z,22.20
2023-04-07T00:06:26.913Z,22.97
2023-04-07T00:08:54.026Z,24.73
2023-04-07T00:11:21.156Z,27.33
2023-04-07T00:13:49.528Z,27.80
2023-04-07T00:16:16.723Z,27.30
2023-04-07T00:18:43.916Z,24.77
2023-04-07T00:21:11.022Z,23.93
2023-04-07T00:23:38.176Z,24.90
2023-04-07T00:26:05.278Z,24.37
2023-04-07T00:28:32.392Z,26.80
2023-04-07T00:31:00.852Z,26.57
2023-04-07T00:33:27.998Z,26.30
2023-04-07T00:35:55.122Z,29.60
2023-04-07T00:38:22.254Z,26.13
2023-04-07T00:40:49.367Z,26.03
2023-04-07T00:43:16.591Z,27.27
2023-04-07T00:45:44.097Z,26.80
2023-04-07T00:48:12.497Z,28.93
2023-04-07T00:50:39.725Z,27.37
2023-04-07T00:53:07.302Z,29.40
2023-04-07T00:55:34.831Z,28.37
2023-04-07T00:58:01.858Z,26.83
2023-04-07T01:00:29.062Z,29.93
2023-04-07T01:02:58.383Z,30.50
2023-04-07T01:05:37.255Z,29.73
2023-04-07T01:08:08.693Z,30.07
2023-04-07T01:10:38.228Z,31.50
2023-04-07T01:13:19.602Z,30.53
2023-04-07T01:15:48.301Z,31.57
2023-04-07T01:18:18.220Z,29.70
2023-04-07T01:20:48.654Z,30.07
2023-04-07T01:23:18.295Z,30.43
2023-04-07T01:26:00.967Z,30.67
2023-04-07T01:28:39.710Z,31.80
2023-04-07T01:31:09.401Z,30.73
2023-04-07T01:33:37.840Z,30.87
2023-04-07T01:36:05.713Z,31.80
2023-04-07T01:38:33.970Z,29.07
2023-04-07T01:41:01.316Z,31.40
2023-04-07T01:43:28.953Z,29.40
2023-04-07T01:45:57.157Z,30.63
2023-04-07T01:48:26.251Z,30.37
2023-04-07T01:50:54.248Z,29.20
2023-04-07T01:53:21.818Z,30.80
2023-04-07T01:55:48.889Z,30.13
2023-04-07T01:58:16.007Z,32.37
2023-04-07T02:00:43.953Z,30.57
2023-04-07T02:03:19.207Z,30.97
2023-04-07T02:05:48.118Z,31.90
2023-04-07T02:08:16.722Z,31.23
2023-04-07T02:10:44.376Z,35.27
2023-04-07T02:13:14.072Z,34.57
2023-04-07T02:15:41.731Z,31.80
2023-04-07T02:18:09.339Z,35.33
2023-04-07T02:20:38.028Z,32.47
2023-04-07T02:23:08.140Z,33.50
2023-04-07T02:25:36.366Z,35.63
2023-04-07T02:28:03.438Z,33.77
2023-04-07T02:30:30.688Z,35.73
2023-04-07T02:32:57.970Z,35.73
2023-04-07T02:35:25.218Z,36.00
2023-04-07T02:37:52.377Z,35.40
2023-04-07T02:40:20.856Z,34.17
2023-04-07T02:42:48.050Z,34.30
2023-04-07T02:45:15.218Z,33.60
2023-04-07T02:47:42.424Z,35.30
2023-04-07T02:50:10.002Z,35.50
2023-04-07T02:52:37.173Z,36.07
2023-04-07T02:55:10.803Z,35.97
2023-04-07T02:57:39.418Z,38.73
2023-04-07T03:00:11.748Z,36.90
2023-04-07T03:02:53.663Z,32.63
2023-04-07T03:05:21.015Z,37.07
2023-04-07T03:07:48.104Z,42.00
2023-04-07T03:10:15.196Z,40.80
2023-04-07T03:12:43.610Z,39.27
2023-04-07T03:15:11.515Z,38.70
2023-04-07T03:17:40.420Z,38.33
2023-04-07T03:20:08.235Z,36.33
2023-04-07T03:22:37.606Z,35.37
2023-04-07T03:25:08.817Z,39.57
2023-04-07T03:27:35.928Z,36.47
2023-04-07T03:30:05.297Z,35.20
2023-04-07T03:32:32.544Z,32.20
2023-04-07T03:34:59.779Z,33.97
2023-04-07T03:37:26.880Z,32.63
2023-04-07T03:39:55.131Z,30.17
2023-04-07T03:42:26.474Z,31.90
2023-04-07T03:44:59.575Z,28.90
2023-04-07T03:47:28.205Z,29.40
2023-04-07T03:49:59.821Z,28.37
2023-04-07T03:52:28.003Z,29.10
2023-04-07T03:55:02.023Z,29.77
2023-04-07T03:57:32.134Z,27.67
2023-04-07T03:59:59.198Z,27.30
2023-04-07T04:02:27.765Z,25.40
2023-04-07T04:04:56.266Z,25.03
2023-04-07T04:07:24.094Z,22.87
2023-04-07T04:09:53.910Z,24.80
2023-04-07T04:12:21.778Z,23.33
2023-04-07T04:14:59.873Z,25.47
2023-04-07T04:17:28.696Z,24.80
2023-04-07T04:19:56.054Z,26.57
2023-04-07T04:22:37.003Z,25.30
2023-04-07T04:25:05.098Z,27.30
2023-04-07T04:27:32.448Z,23.13
2023-04-07T04:30:05.886Z,24.07
2023-04-07T04:32:42.169Z,25.50
2023-04-07T04:35:10.090Z,22.37
2023-04-07T04:37:45.596Z,23.63
2023-04-07T04:40:14.631Z,21.87
2023-04-07T04:42:43.705Z,21.37
2023-04-07T04:45:12.561Z,21.50
2023-04-07T04:47:45.405Z,21.67
2023-04-07T04:50:12.880Z,20.33
2023-04-07T04:52:42.118Z,19.90
2023-04-07T04:55:16.179Z,18.90
2023-04-07T04:57:44.378Z,19.57
2023-04-07T05:00:14.913Z,21.17
2023-04-07T05:02:46.027Z,19.90
2023-04-07T05:05:13.479Z,21.67
2023-04-07T05:07:40.733Z,19.70
2023-04-07T05:10:10.115Z,18.80
2023-04-07T05:12:40.721Z,17.00
2023-04-07T05:15:08.321Z,15.83
2023-04-07T05:17:35.709Z,14.73
2023-04-07T05:20:04.873Z,15.87
2023-04-07T05:22:38.045Z,14.40
2023-04-07T05:25:07.883Z,14.37
2023-04-07T05:27:35.003Z,14.60
2023-04-07T05:30:08.609Z,16.27
2023-04-07T05:32:36.065Z,14.17
2023-04-07T05:35:11.336Z,13.30
2023-04-07T05:37:44.313Z,16.20
2023-04-07T05:40:12.407Z,15.03
2023-04-07T05:42:39.997Z,13.70
2023-04-07T05:45:08.107Z,14.03
2023-04-07T05:47:38.469Z,13.43
2023-04-07T05:50:06.096Z,12.60
2023-04-07T05:52:36.578Z,14.40
2023-04-07T05:55:16.321Z,13.67
2023-04-07T05:57:43.425Z,15.00
2023-04-07T06:00:11.211Z,14.07
2023-04-07T06:02:41.588Z,13.13
2023-04-07T06:05:14.555Z,12.73
2023-04-07T06:07:43.122Z,13.70
2023-04-07T06:10:10.902Z,14.10
2023-04-07T06:12:38.078Z,15.60
2023-04-07T06:15:05.334Z,12.43
2023-04-07T06:17:32.397Z,12.30
2023-04-07T06:19:59.480Z,13.10
2023-04-07T06:22:26.546Z,13.13
2023-04-07T06:24:55.002Z,12.77
2023-04-07T06:27:22.196Z,13.27
2023-04-07T06:29:49.280Z,13.80
2023-04-07T06:32:16.306Z,11.23
2023-04-07T06:34:43.400Z,11.60
2023-04-07T06:37:10.621Z,12.73
2023-04-07T06:39:37.776Z,11.30
2023-04-07T06:42:06.327Z,12.03
2023-04-07T06:44:38.114Z,12.83
2023-04-07T06:47:05.422Z,12.30
2023-04-07T06:49:32.549Z,13.73
2023-04-07T06:51:59.597Z,14.00
2023-04-07T06:54:26.810Z,11.70
2023-04-07T06:56:54.668Z,12.60
2023-04-07T06:59:23.212Z,10.90
2023-04-07T07:01:50.378Z,11.50
2023-04-07T07:04:17.562Z,11.70
2023-04-07T07:06:44.720Z,12.83
2023-04-07T07:09:11.760Z,11.50
2023-04-07T07:11:38.849Z,11.90
2023-04-07T07:14:05.883Z,12.10
2023-04-07T07:16:34.260Z,10.47
2023-04-07T07:19:01.309Z,11.97
2023-04-07T07:21:28.396Z,10.40
2023-04-07T07:23:55.652Z,10.13
2023-04-07T07:26:22.708Z,9.43
2023-04-07T07:28:49.887Z,9.63
2023-04-07T07:31:17.001Z,10.40
2023-04-07T07:33:45.931Z,8.97
2023-04-07T07:36:13.228Z,9.70
2023-04-07T07:38:40.503Z,11.07
2023-04-07T07:41:07.706Z,10.10
2023-04-07T07:43:34.812Z,8.80
2023-04-07T07:46:02.125Z,9.53
2023-04-07T07:48:29.242Z,11.40
2023-04-07T07:50:57.720Z,11.37
2023-04-07T07:53:25.040Z,10.40
2023-04-07T07:55:52.161Z,13.33
2023-04-07T07:58:19.248Z,10.93
2023-04-07T08:00:46.432Z,10.03
2023-04-07T08:03:13.565Z,12.13
2023-04-07T08:05:40.743Z,12.07
2023-04-07T08:08:09.149Z,11.97
2023-04-07T08:10:36.218Z,14.17
2023-04-07T08:13:03.337Z,11.83
2023-04-07T08:15:30.396Z,12.67
2023-04-07T08:17:57.459Z,12.80
2023-04-07T08:20:24.629Z,12.80
2023-04-07T08:22:51.689Z,14.60
2023-04-07T08:25:20.288Z,12.60
2023-04-07T08:27:47.476Z,10.93
2023-04-07T08:30:14.836Z,15.30
2023-04-07T08:32:43.705Z,11.60
2023-04-07T08:35:11.025Z,13.50
2023-04-07T08:37:38.510Z,12.97
2023-04-07T08:40:06.215Z,12.17
2023-04-07T08:42:35.677Z,12.53
2023-04-07T08:45:03.846Z,12.40
2023-04-07T08:47:31.616Z,12.47
2023-04-07T08:50:01.061Z,12.53
2023-04-07T08:52:33.457Z,12.30
2023-04-07T08:55:00.975Z,12.63
2023-04-07T08:57:29.544Z,13.03
2023-04-07T08:59:58.780Z,13.53
2023-04-07T09:02:26.091Z,12.10
2023-04-07T09:04:53.292Z,13.40
2023-04-07T09:07:20.374Z,11.73
2023-04-07T09:09:47.429Z,11.67
2023-04-07T09:12:14.501Z,12.20
2023-04-07T09:14:41.511Z,13.83
2023-04-07T09:17:10.038Z,12.00
2023-04-07T09:19:37.273Z,13.60
2023-04-07T09:22:04.367Z,11.33
2023-04-07T09:24:31.450Z,11.70
2023-04-07T09:27:09.259Z,11.20
2023-04-07T09:29:36.381Z,13.17
2023-04-07T09:32:03.490Z,13.73
2023-04-07T09:34:33.389Z,12.00
2023-04-07T09:37:00.576Z,12.37
2023-04-07T09:39:27.606Z,12.60
2023-04-07T09:41:54.710Z,13.43
2023-04-07T09:44:22.249Z,12.77
2023-04-07T09:46:49.639Z,13.53
2023-04-07T09:49:16.858Z,12.70
2023-04-07T09:51:54.473Z,12.17
2023-04-07T09:54:34.785Z,13.33
2023-04-07T09:57:02.412Z,12.90
2023-04-07T09:59:29.978Z,14.03
2023-04-07T10:01:57.262Z,12.83
2023-04-07T10:04:24.685Z,14.30
2023-04-07T10:06:53.875Z,13.70
2023-04-07T10:09:21.084Z,13.97
2023-04-07T10:11:48.712Z,15.17
2023-04-07T10:14:16.039Z,14.80
2023-04-07T10:16:43.843Z,16.90
2023-04-07T10:19:11.325Z,16.50
2023-04-07T10:21:40.098Z,15.93
2023-04-07T10:24:14.846Z,15.77
2023-04-07T10:26:42.640Z,14.73
2023-04-07T10:29:12.182Z,14.67
2023-04-07T10:31:39.730Z,13.47
2023-04-07T10:34:06.978Z,16.00
2023-04-07T10:36:34.181Z,12.90
2023-04-07T10:39:21.295Z,12.90
2023-04-07T10:41:48.402Z,13.83
2023-04-07T10:44:33.927Z,14.07
2023-04-07T10:47:04.182Z,12.30
2023-04-07T10:49:31.303Z,11.83
2023-04-07T10:52:16.799Z,14.47
2023-04-07T10:54:45.281Z,13.40
2023-04-07T10:57:13.306Z,11.73
2023-04-07T10:59:41.936Z,11.63
2023-04-07T11:02:36.234Z,11.77
2023-04-07T11:05:03.769Z,12.27
2023-04-07T11:07:47.390Z,11.90
2023-04-07T11:10:16.397Z,11.87
2023-04-07T11:12:43.641Z,11.50
2023-04-07T11:15:20.603Z,12.00
2023-04-07T11:17:47.728Z,12.43
2023-04-07T11:20:14.910Z,12.07
2023-04-07T11:22:42.021Z,12.07
2023-04-07T11:25:22.564Z,9.80
2023-04-07T11:27:49.744Z,12.40
2023-04-07T11:30:17.172Z,11.00
2023-04-07T11:32:48.103Z,11.70
2023-04-07T11:35:15.219Z,11.67
2023-04-07T11:37:42.289Z,11.57
2023-04-07T11:40:10.145Z,11.63
2023-04-07T11:42:39.747Z,11.53
2023-04-07T11:45:08.397Z,13.40
2023-04-07T11:47:35.930Z,10.90
2023-04-07T11:50:03.117Z,11.00
2023-04-07T11:52:30.297Z,10.30
2023-04-07T11:54:57.409Z,9.40
2023-04-07T11:57:25.530Z,9.87
2023-04-07T12:00:05.809Z,9.20
2023-04-07T12:02:33.703Z,9.37
2023-04-07T12:05:01.081Z,9.73
2023-04-07T12:07:28.433Z,9.53
2023-04-07T12:09:55.772Z,10.20
2023-04-07T12:12:26.130Z,11.00
2023-04-07T12:14:54.723Z,10.97
2023-04-07T12:17:21.943Z,10.80
2023-04-07T12:19:49.010Z,9.40
2023-04-07T12:22:16.198Z,10.63
2023-04-07T12:24:43.352Z,12.00
2023-04-07T12:27:10.392Z,10.00
2023-04-07T12:29:37.441Z,10.33
2023-04-07T12:32:06.191Z,11.30
2023-04-07T12:34:33.313Z,10.43
2023-04-07T12:37:00.436Z,10.17
2023-04-07T12:39:27.542Z,10.40
2023-04-07T12:41:54.614Z,10.20
2023-04-07T12:44:21.708Z,12.00
2023-04-07T12:46:48.778Z,11.10
2023-04-07T12:49:17.217Z,11.37
2023-04-07T12:51:44.376Z,10.73
2023-04-07T12:54:11.414Z,10.60
2023-04-07T12:56:38.517Z,10.43
2023-04-07T12:59:05.594Z,10.90
2023-04-07T13:01:34.079Z,10.60
2023-04-07T13:04:01.542Z,9.97
2023-04-07T13:06:29.918Z,9.90
2023-04-07T13:08:56.993Z,10.10
2023-04-07T13:11:24.055Z,9.23
2023-04-07T13:13:51.307Z,11.17
2023-04-07T13:16:18.662Z,9.10
2023-04-07T13:18:45.760Z,9.43
2023-04-07T13:21:41.185Z,9.27
2023-04-07T13:24:01.259Z,8.30
2023-04-07T13:26:28.406Z,8.87
2023-04-07T13:28:55.462Z,8.33
2023-04-07T13:31:22.658Z,7.93
2023-04-07T13:33:49.976Z,9.57
2023-04-07T13:36:17.357Z,9.10
2023-04-07T13:38:44.472Z,9.80
2023-04-07T13:41:12.896Z,8.50
2023-04-07T13:43:39.902Z,9.37
2023-04-07T13:46:17.155Z,10.10
2023-04-07T13:48:51.932Z,8.77
2023-04-07T13:51:19.365Z,9.53
2023-04-07T13:53:46.605Z,10.27
2023-04-07T13:56:15.124Z,9.60
2023-04-07T13:58:42.265Z,9.53
2023-04-07T14:01:09.395Z,9.47
2023-04-07T14:03:36.540Z,10.80
2023-04-07T14:06:03.839Z,9.63
2023-04-07T14:08:30.901Z,10.60
2023-04-07T14:10:57.917Z,10.60
2023-04-07T14:13:26.388Z,10.80
2023-04-07T14:15:53.491Z,11.90
2023-04-07T14:18:20.596Z,10.20
2023-04-07T14:20:47.752Z,10.77
2023-04-07T14:23:18.632Z,11.40
2023-04-07T14:25:53.554Z,12.07
2023-04-07T14:28:20.606Z,11.77
2023-04-07T14:30:49.064Z,11.50
2023-04-07T14:33:16.266Z,10.93
2023-04-07T14:35:43.735Z,11.80
2023-04-07T14:38:10.879Z,12.40
2023-04-07T14:40:37.947Z,11.80
2023-04-07T14:43:07.178Z,13.70
2023-04-07T14:45:34.736Z,12.20
2023-04-07T14:48:03.272Z,13.53
2023-04-07T14:50:32.355Z,11.30
2023-04-07T14:52:59.435Z,11.73
2023-04-07T14:55:26.540Z,12.20
2023-04-07T14:57:53.763Z,10.40
2023-04-07T15:00:20.993Z,10.50
2023-04-07T15:02:48.276Z,11.87
2023-04-07T15:05:16.938Z,12.30
2023-04-07T15:07:44.044Z,10.90
2023-04-07T15:10:11.178Z,12.10
2023-04-07T15:12:38.211Z,11.63
2023-04-07T15:15:05.774Z,10.50
2023-04-07T15:17:43.128Z,11.73
2023-04-07T15:20:11.347Z,11.87
2023-04-07T15:22:39.831Z,11.50
2023-04-07T15:25:07.144Z,10.87
2023-04-07T15:27:34.303Z,10.70
2023-04-07T15:30:01.399Z,9.23
2023-04-07T15:32:30.895Z,10.10
2023-04-07T15:34:58.062Z,10.47
2023-04-07T15:37:25.350Z,11.07
2023-04-07T15:39:53.771Z,10.23
2023-04-07T15:42:20.878Z,11.77
2023-04-07T15:44:47.953Z,10.03
2023-04-07T15:47:14.999Z,11.87
2023-04-07T15:49:42.158Z,10.87
2023-04-07T15:52:09.384Z,10.00
2023-04-07T15:54:36.533Z,9.70
2023-04-07T15:57:05.009Z,9.83
2023-04-07T15:59:33.400Z,9.90
2023-04-07T16:02:00.673Z,9.30
2023-04-07T16:04:27.813Z,10.57
2023-04-07T16:06:54.918Z,10.40
2023-04-07T16:09:22.026Z,9.93
2023-04-07T16:11:49.069Z,10.47
2023-04-07T16:14:17.522Z,11.53
2023-04-07T16:16:44.681Z,11.20
2023-04-07T16:19:11.908Z,12.00
2023-04-07T16:21:39.492Z,12.00
2023-04-07T16:24:06.547Z,11.70
2023-04-07T16:26:33.630Z,11.97
2023-04-07T16:29:00.803Z,13.00
2023-04-07T16:31:29.277Z,11.80
2023-04-07T16:33:56.793Z,12.40
2023-04-07T16:36:23.841Z,12.90
2023-04-07T16:38:51.051Z,12.97
2023-04-07T16:41:18.184Z,13.73
2023-04-07T16:43:45.302Z,14.90
2023-04-07T16:46:12.401Z,13.20
2023-04-07T16:48:40.805Z,12.50
2023-04-07T16:51:07.890Z,13.30
2023-04-07T16:53:35.009Z,14.40
2023-04-07T16:56:02.056Z,13.83
2023-04-07T16:58:29.202Z,15.67
2023-04-07T17:00:56.372Z,15.43
2023-04-07T17:03:23.704Z,17.27
2023-04-07T17:05:52.332Z,15.00
2023-04-07T17:08:19.389Z,14.00
2023-04-07T17:10:46.590Z,16.83
2023-04-07T17:13:13.764Z,14.80
2023-04-07T17:15:40.935Z,17.07
2023-04-07T17:18:08.188Z,16.50
2023-04-07T17:20:35.333Z,17.90
2023-04-07T17:23:03.871Z,18.37
2023-04-07T17:25:30.888Z,17.60
2023-04-07T17:27:57.998Z,15.60
2023-04-07T17:30:25.028Z,17.57
2023-04-07T17:32:52.652Z,17.07
2023-04-07T17:35:19.980Z,16.80
2023-04-07T17:37:47.087Z,17.77
2023-04-07T17:40:15.525Z,17.67
2023-04-07T17:42:42.640Z,17.10
2023-04-07T17:45:09.987Z,15.97
2023-04-07T17:47:38.191Z,17.67
2023-04-07T17:50:05.685Z,16.70
2023-04-07T17:52:32.749Z,17.13
2023-04-07T17:54:59.840Z,16.27
2023-04-07T17:57:28.296Z,18.90
2023-04-07T17:59:55.352Z,16.80
2023-04-07T18:02:22.579Z,18.57
2023-04-07T18:04:49.837Z,18.00
2023-04-07T18:07:16.931Z,17.90
2023-04-07T18:09:43.992Z,19.70
2023-04-07T18:12:11.143Z,18.30
2023-04-07T18:14:39.533Z,17.50
2023-04-07T18:17:06.621Z,18.63
2023-04-07T18:19:33.750Z,18.27
2023-04-07T18:22:00.936Z,18.57
2023-04-07T18:24:28.347Z,17.13
2023-04-07T18:26:55.506Z,17.37
2023-04-07T18:29:22.673Z,15.93
2023-04-07T18:31:51.322Z,14.20
2023-04-07T18:34:18.504Z,14.37
2023-04-07T18:36:45.600Z,13.73
2023-04-07T18:39:12.732Z,13.30
2023-04-07T18:41:40.474Z,14.20
2023-04-07T18:44:07.494Z,12.83
2023-04-07T18:46:34.590Z,14.17
2023-04-07T18:49:03.063Z,14.87
2023-04-07T18:51:30.304Z,14.97
2023-04-07T18:53:57.757Z,14.40
2023-04-07T18:56:25.018Z,13.27
2023-04-07T18:58:52.073Z,16.20
2023-04-07T19:01:19.262Z,15.83
2023-04-07T19:03:46.694Z,15.13
2023-04-07T19:06:16.061Z,16.60
2023-04-07T19:08:43.316Z,15.30
2023-04-07T19:11:10.402Z,19.27
2023-04-07T19:13:37.493Z,15.73
2023-04-07T19:16:04.802Z,13.20
2023-04-07T19:18:32.008Z,15.70
2023-04-07T19:20:59.087Z,13.53
2023-04-07T19:23:27.618Z,13.90
2023-04-07T19:25:54.813Z,14.43
2023-04-07T19:28:22.158Z,16.30
2023-04-07T19:30:49.211Z,17.93
2023-04-07T19:33:16.300Z,17.03
2023-04-07T19:35:43.467Z,17.87
2023-04-07T19:38:10.584Z,18.90
2023-04-07T19:40:38.993Z,17.23
2023-04-07T19:43:06.051Z,17.70
2023-04-07T19:45:33.177Z,18.20
2023-04-07T19:48:00.359Z,21.33
2023-04-07T19:50:27.590Z,20.70
2023-04-07T19:52:54.663Z,18.70
2023-04-07T19:55:21.868Z,18.53
2023-04-07T19:57:50.361Z,18.40
2023-04-07T20:00:17.811Z,17.30
2023-04-07T20:02:51.960Z,16.13
2023-04-07T20:05:19.115Z,14.60
2023-04-07T20:07:46.267Z,16.47
2023-04-07T20:10:13.388Z,16.43
2023-04-07T20:12:40.445Z,16.80
2023-04-07T20:15:09.765Z,18.40
2023-04-07T20:17:36.935Z,15.70
2023-04-07T20:20:04.238Z,17.03
2023-04-07T20:22:31.332Z,17.30
2023-04-07T20:24:58.655Z,16.30
2023-04-07T20:27:25.701Z,15.60
2023-04-07T20:29:52.832Z,15.80
2023-04-07T20:32:21.291Z,16.00
2023-04-07T20:34:48.355Z,18.47
2023-04-07T20:37:15.404Z,17.50
2023-04-07T20:39:42.473Z,17.80
2023-04-07T20:42:09.638Z,16.90
2023-04-07T20:44:36.738Z,17.60
2023-04-07T20:47:07.503Z,17.10
2023-04-07T20:49:35.897Z,17.80
2023-04-07T20:52:03.124Z,17.50
2023-04-07T20:54:30.206Z,17.33
2023-04-07T20:56:57.265Z,18.80
2023-04-07T20:59:24.412Z,18.10
2023-04-07T21:01:51.522Z,18.00
2023-04-07T21:04:18.834Z,19.43
2023-04-07T21:06:47.347Z,18.73
2023-04-07T21:09:14.411Z,18.97
2023-04-07T21:11:41.466Z,20.23
2023-04-07T21:14:08.541Z,20.00
2023-04-07T21:16:35.597Z,20.00
2023-04-07T21:19:02.660Z,19.60
2023-04-07T21:21:29.786Z,20.47
2023-04-07T21:23:58.204Z,18.63
2023-04-07T21:26:25.326Z,19.80
2023-04-07T21:28:52.480Z,21.50
2023-04-07T21:31:22.908Z,20.70
2023-04-07T21:33:50.271Z,20.47
2023-04-07T21:36:17.342Z,21.67
2023-04-07T21:38:44.372Z,21.77
2023-04-07T21:41:12.701Z,21.20
2023-04-07T21:43:39.766Z,22.20
2023-04-07T21:46:06.811Z,21.83
2023-04-07T21:48:33.881Z,22.60
2023-04-07T21:51:00.997Z,21.60
2023-04-07T21:53:28.222Z,22.37
2023-04-07T21:55:55.326Z,22.50
2023-04-07T21:58:23.854Z,21.53
2023-04-07T22:00:50.912Z,21.60
2023-04-07T22:03:18.105Z,23.50
2023-04-07T22:05:45.385Z,22.80
2023-04-07T22:08:12.626Z,22.40
2023-04-07T22:10:39.794Z,23.10
2023-04-07T22:13:06.866Z,24.00
2023-04-07T22:15:35.386Z,25.60
2023-04-07T22:18:02.604Z,25.27
2023-04-07T22:20:29.704Z,25.40
2023-04-07T22:22:56.854Z,24.60
2023-04-07T22:25:23.898Z,25.50
2023-04-07T22:27:51.012Z,27.67
2023-04-07T22:30:18.334Z,23.07
2023-04-07T22:32:46.773Z,26.13
2023-04-07T22:35:13.967Z,25.90
2023-04-07T22:37:41.025Z,25.83
2023-04-07T22:40:08.927Z,24.80
2023-04-07T22:42:36.046Z,24.30
2023-04-07T22:45:03.253Z,24.67
2023-04-07T22:47:30.349Z,25.73
2023-04-07T22:49:58.798Z,26.63
2023-04-07T22:52:25.871Z,26.07
2023-04-07T22:54:52.906Z,29.20
2023-04-07T22:57:19.969Z,26.87
2023-04-07T22:59:47.050Z,26.53
2023-04-07T23:02:14.312Z,27.03
2023-04-07T23:04:41.365Z,27.03
2023-04-07T23:07:09.822Z,26.93
2023-04-07T23:09:36.876Z,27.03
2023-04-07T23:12:03.979Z,28.30
2023-04-07T23:14:31.090Z,27.30
2023-04-07T23:16:58.261Z,27.67
2023-04-07T23:19:25.525Z,26.10
2023-04-07T23:21:52.614Z,26.57
2023-04-07T23:24:21.048Z,25.73
2023-04-07T23:26:48.205Z,25.50
2023-04-07T23:29:15.325Z,24.80
2023-04-07T23:31:42.465Z,25.33
2023-04-07T23:34:09.513Z,27.40
2023-04-07T23:36:36.705Z,25.83
2023-04-07T23:39:03.802Z,26.73
2023-04-07T23:41:32.190Z,26.43
2023-04-07T23:43:59.413Z,26.47
2023-04-07T23:46:26.722Z,25.30
2023-04-07T23:48:53.884Z,24.80
2023-04-07T23:51:21.044Z,24.97
2023-04-07T23:53:48.166Z,24.80
2023-04-07T23:56:15.423Z,23.57
2023-04-07T23:58:43.894Z,24.33
